sensor_id;sensor_type;location;lat;lon;timestamp;temperature;humidity
61151;DHT22;47029;50.994;2.876;2023-02-01T00:01:51;8.20;99.90
61151;DHT22;47029;50.994;2.876;2023-02-01T00:04:16;8.10;99.90
61151;DHT22;47029;50.994;2.876;2023-02-01T00:06:42;8.00;99.90
61151;DHT22;47029;50.994;2.876;2023-02-01T00:09:10;8.10;99.90
61151;DHT22;47029;50.994;2.876;2023-02-01T00:11:36;8.00;99.90
61151;DHT22;47029;50.994;2.876;2023-02-01T00:14:04;7.90;99.90
61151;DHT22;47029;50.994;2.876;2023-02-01T00:16:30;8.00;99.90
61151;DHT22;47029;50.994;2.876;2023-02-01T00:19:06;7.80;99.90
61151;DHT22;47029;50.994;2.876;2023-02-01T00:21:32;7.80;99.90
61151;DHT22;47029;50.994;2.876;2023-02-01T00:23:58;7.80;99.90
61151;DHT22;47029;50.994;2.876;2023-02-01T00:28:56;7.70;99.90
61151;DHT22;47029;50.994;2.876;2023-02-01T00:31:22;7.70;99.90
61151;DHT22;47029;50.994;2.876;2023-02-01T00:33:48;7.20;99.90
61151;DHT22;47029;50.994;2.876;2023-02-01T00:36:14;7.40;99.90
61151;DHT22;47029;50.994;2.876;2023-02-01T00:38:41;7.30;99.90
61151;DHT22;47029;50.994;2.876;2023-02-01T00:41:10;7.20;99.90
61151;DHT22;47029;50.994;2.876;2023-02-01T00:43:37;7.20;99.90
61151;DHT22;47029;50.994;2.876;2023-02-01T00:46:05;7.10;99.90
61151;DHT22;47029;50.994;2.876;2023-02-01T00:48:31;7.20;99.90
61151;DHT22;47029;50.994;2.876;2023-02-01T00:51:01;7.20;99.90
61151;DHT22;47029;50.994;2.876;2023-02-01T00:53:27;7.20;99.90
61151;DHT22;47029;50.994;2.876;2023-02-01T00:55:56;7.30;99.90
61151;DHT22;47029;50.994;2.876;2023-02-01T00:58:22;7.20;99.90
61151;DHT22;47029;50.994;2.876;2023-02-01T01:01:14;7.20;99.90
61151;DHT22;47029;50.994;2.876;2023-02-01T01:03:46;7.20;99.90
61151;DHT22;47029;50.994;2.876;2023-02-01T01:06:14;7.20;99.90
61151;DHT22;47029;50.994;2.876;2023-02-01T01:08:41;7.20;99.90
61151;DHT22;47029;50.994;2.876;2023-02-01T01:11:16;7.20;99.90
61151;DHT22;47029;50.994;2.876;2023-02-01T01:13:47;7.00;99.90
61151;DHT22;47029;50.994;2.876;2023-02-01T01:16:13;7.00;99.90
61151;DHT22;47029;50.994;2.876;2023-02-01T01:18:39;7.10;99.90
61151;DHT22;47029;50.994;2.876;2023-02-01T01:21:06;7.20;99.90
61151;DHT22;47029;50.994;2.876;2023-02-01T01:23:32;5.30;99.90
61151;DHT22;47029;50.994;2.876;2023-02-01T01:26:00;6.80;99.90
61151;DHT22;47029;50.994;2.876;2023-02-01T01:28:26;6.70;99.90
61151;DHT22;47029;50.994;2.876;2023-02-01T01:30:52;6.70;99.90
61151;DHT22;47029;50.994;2.876;2023-02-01T01:33:17;6.70;99.90
61151;DHT22;47029;50.994;2.876;2023-02-01T01:35:43;6.70;99.90
61151;DHT22;47029;50.994;2.876;2023-02-01T01:38:10;6.70;99.90
61151;DHT22;47029;50.994;2.876;2023-02-01T01:40:36;6.60;99.90
61151;DHT22;47029;50.994;2.876;2023-02-01T01:43:03;6.70;99.90
61151;DHT22;47029;50.994;2.876;2023-02-01T01:45:34;6.80;99.90
61151;DHT22;47029;50.994;2.876;2023-02-01T01:50:48;6.80;99.90
61151;DHT22;47029;50.994;2.876;2023-02-01T01:53:23;6.70;99.90
61151;DHT22;47029;50.994;2.876;2023-02-01T01:55:51;6.70;99.90
61151;DHT22;47029;50.994;2.876;2023-02-01T01:58:23;6.70;99.90
61151;DHT22;47029;50.994;2.876;2023-02-01T02:00:51;6.80;99.90
61151;DHT22;47029;50.994;2.876;2023-02-01T02:03:46;7.00;99.90
61151;DHT22;47029;50.994;2.876;2023-02-01T02:08:57;7.30;99.90
61151;DHT22;47029;50.994;2.876;2023-02-01T02:11:23;7.30;99.90
61151;DHT22;47029;50.994;2.876;2023-02-01T02:13:51;7.20;99.90
61151;DHT22;47029;50.994;2.876;2023-02-01T02:21:52;7.10;99.90
61151;DHT22;47029;50.994;2.876;2023-02-01T02:38:35;5.60;99.90
61151;DHT22;47029;50.994;2.876;2023-02-01T02:47:42;7.00;99.90
61151;DHT22;47029;50.994;2.876;2023-02-01T02:50:15;7.00;99.90
61151;DHT22;47029;50.994;2.876;2023-02-01T02:53:13;7.00;99.90
61151;DHT22;47029;50.994;2.876;2023-02-01T02:55:57;6.90;99.90
61151;DHT22;47029;50.994;2.876;2023-02-01T02:58:43;6.90;99.90
61151;DHT22;47029;50.994;2.876;2023-02-01T03:01:30;6.80;99.90
61151;DHT22;47029;50.994;2.876;2023-02-01T03:04:16;6.80;99.90
61151;DHT22;47029;50.994;2.876;2023-02-01T03:06:44;6.80;99.90
61151;DHT22;47029;50.994;2.876;2023-02-01T03:09:20;6.80;99.90
61151;DHT22;47029;50.994;2.876;2023-02-01T03:11:50;6.80;99.90
61151;DHT22;47029;50.994;2.876;2023-02-01T03:14:38;6.80;99.90
61151;DHT22;47029;50.994;2.876;2023-02-01T03:17:13;6.90;99.90
61151;DHT22;47029;50.994;2.876;2023-02-01T03:19:43;6.70;99.90
61151;DHT22;47029;50.994;2.876;2023-02-01T03:22:20;6.80;99.90
61151;DHT22;47029;50.994;2.876;2023-02-01T03:24:54;6.90;99.90
61151;DHT22;47029;50.994;2.876;2023-02-01T03:27:30;6.80;99.90
61151;DHT22;47029;50.994;2.876;2023-02-01T03:30:24;6.90;99.90
61151;DHT22;47029;50.994;2.876;2023-02-01T03:32:58;6.90;99.90
61151;DHT22;47029;50.994;2.876;2023-02-01T03:35:45;6.80;99.90
61151;DHT22;47029;50.994;2.876;2023-02-01T03:44:04;6.90;99.90
61151;DHT22;47029;50.994;2.876;2023-02-01T03:46:35;6.80;99.90
61151;DHT22;47029;50.994;2.876;2023-02-01T03:49:06;6.80;99.90
61151;DHT22;47029;50.994;2.876;2023-02-01T03:51:34;6.70;99.90
61151;DHT22;47029;50.994;2.876;2023-02-01T03:54:03;6.70;99.90
61151;DHT22;47029;50.994;2.876;2023-02-01T03:56:31;6.70;99.90
61151;DHT22;47029;50.994;2.876;2023-02-01T03:58:58;6.80;99.90
61151;DHT22;47029;50.994;2.876;2023-02-01T04:01:29;6.70;99.90
61151;DHT22;47029;50.994;2.876;2023-02-01T04:03:58;6.70;99.90
61151;DHT22;47029;50.994;2.876;2023-02-01T04:06:26;6.70;99.90
61151;DHT22;47029;50.994;2.876;2023-02-01T04:08:52;6.70;99.90
61151;DHT22;47029;50.994;2.876;2023-02-01T04:11:18;6.60;99.90
61151;DHT22;47029;50.994;2.876;2023-02-01T04:13:44;6.70;99.90
61151;DHT22;47029;50.994;2.876;2023-02-01T04:16:10;6.60;99.90
61151;DHT22;47029;50.994;2.876;2023-02-01T04:18:36;6.60;99.90
61151;DHT22;47029;50.994;2.876;2023-02-01T04:21:02;6.60;99.90
61151;DHT22;47029;50.994;2.876;2023-02-01T04:23:29;6.60;99.90
61151;DHT22;47029;50.994;2.876;2023-02-01T04:25:59;6.50;99.90
61151;DHT22;47029;50.994;2.876;2023-02-01T04:28:26;6.40;99.90
61151;DHT22;47029;50.994;2.876;2023-02-01T04:30:51;6.40;99.90
61151;DHT22;47029;50.994;2.876;2023-02-01T04:33:17;6.30;99.90
61151;DHT22;47029;50.994;2.876;2023-02-01T04:35:45;6.30;99.90
61151;DHT22;47029;50.994;2.876;2023-02-01T04:38:11;6.30;99.90
61151;DHT22;47029;50.994;2.876;2023-02-01T04:40:37;6.40;99.90
61151;DHT22;47029;50.994;2.876;2023-02-01T04:43:05;6.50;99.90
61151;DHT22;47029;50.994;2.876;2023-02-01T04:45:33;6.60;99.90
61151;DHT22;47029;50.994;2.876;2023-02-01T04:48:00;6.60;99.90
61151;DHT22;47029;50.994;2.876;2023-02-01T04:50:28;6.60;99.90
61151;DHT22;47029;50.994;2.876;2023-02-01T04:52:54;5.90;99.90
61151;DHT22;47029;50.994;2.876;2023-02-01T04:55:20;6.60;99.90
61151;DHT22;47029;50.994;2.876;2023-02-01T04:57:46;6.50;99.90
61151;DHT22;47029;50.994;2.876;2023-02-01T05:00:12;6.30;99.90
61151;DHT22;47029;50.994;2.876;2023-02-01T05:02:38;6.30;99.90
61151;DHT22;47029;50.994;2.876;2023-02-01T05:05:04;4.60;99.90
61151;DHT22;47029;50.994;2.876;2023-02-01T05:07:30;6.20;99.90
61151;DHT22;47029;50.994;2.876;2023-02-01T05:09:56;6.10;99.90
61151;DHT22;47029;50.994;2.876;2023-02-01T05:12:24;6.20;99.90
61151;DHT22;47029;50.994;2.876;2023-02-01T05:15:08;6.40;99.90
61151;DHT22;47029;50.994;2.876;2023-02-01T05:17:34;6.50;99.90
61151;DHT22;47029;50.994;2.876;2023-02-01T05:20:00;6.60;99.90
61151;DHT22;47029;50.994;2.876;2023-02-01T05:22:26;6.60;99.90
61151;DHT22;47029;50.994;2.876;2023-02-01T05:24:51;6.70;99.90
61151;DHT22;47029;50.994;2.876;2023-02-01T05:27:17;6.60;99.90
61151;DHT22;47029;50.994;2.876;2023-02-01T05:29:45;6.60;99.90
61151;DHT22;47029;50.994;2.876;2023-02-01T05:32:11;6.60;99.90
61151;DHT22;47029;50.994;2.876;2023-02-01T05:34:37;6.60;99.90
61151;DHT22;47029;50.994;2.876;2023-02-01T05:37:03;6.60;99.90
61151;DHT22;47029;50.994;2.876;2023-02-01T05:39:28;6.60;99.90
61151;DHT22;47029;50.994;2.876;2023-02-01T05:41:54;6.50;99.90
61151;DHT22;47029;50.994;2.876;2023-02-01T05:44:20;6.30;99.90
61151;DHT22;47029;50.994;2.876;2023-02-01T05:46:45;4.50;99.90
61151;DHT22;47029;50.994;2.876;2023-02-01T05:49:11;6.10;99.90
61151;DHT22;47029;50.994;2.876;2023-02-01T05:51:37;6.10;99.90
61151;DHT22;47029;50.994;2.876;2023-02-01T05:54:05;6.00;99.90
61151;DHT22;47029;50.994;2.876;2023-02-01T05:56:31;5.90;99.90
61151;DHT22;47029;50.994;2.876;2023-02-01T05:58:56;5.90;99.90
61151;DHT22;47029;50.994;2.876;2023-02-01T06:01:22;5.90;99.90
61151;DHT22;47029;50.994;2.876;2023-02-01T06:03:48;5.90;99.90
61151;DHT22;47029;50.994;2.876;2023-02-01T06:06:14;5.90;99.90
61151;DHT22;47029;50.994;2.876;2023-02-01T06:08:39;5.90;99.90
61151;DHT22;47029;50.994;2.876;2023-02-01T06:11:06;5.90;99.90
61151;DHT22;47029;50.994;2.876;2023-02-01T06:13:32;6.00;99.90
61151;DHT22;47029;50.994;2.876;2023-02-01T06:16:00;6.00;99.90
61151;DHT22;47029;50.994;2.876;2023-02-01T06:18:26;6.00;99.90
61151;DHT22;47029;50.994;2.876;2023-02-01T06:20:54;5.90;99.90
61151;DHT22;47029;50.994;2.876;2023-02-01T06:23:20;6.00;99.90
61151;DHT22;47029;50.994;2.876;2023-02-01T06:25:52;6.10;99.90
61151;DHT22;47029;50.994;2.876;2023-02-01T06:28:18;6.10;99.90
61151;DHT22;47029;50.994;2.876;2023-02-01T06:30:44;6.00;99.90
61151;DHT22;47029;50.994;2.876;2023-02-01T06:33:15;6.00;99.90
61151;DHT22;47029;50.994;2.876;2023-02-01T06:35:44;6.00;99.90
61151;DHT22;47029;50.994;2.876;2023-02-01T06:38:13;5.90;99.90
61151;DHT22;47029;50.994;2.876;2023-02-01T06:40:39;6.00;99.90
61151;DHT22;47029;50.994;2.876;2023-02-01T06:43:06;6.00;99.90
61151;DHT22;47029;50.994;2.876;2023-02-01T06:45:32;6.00;99.90
61151;DHT22;47029;50.994;2.876;2023-02-01T06:48:01;5.90;99.90
61151;DHT22;47029;50.994;2.876;2023-02-01T06:50:27;5.90;99.90
61151;DHT22;47029;50.994;2.876;2023-02-01T06:52:55;5.90;99.90
61151;DHT22;47029;50.994;2.876;2023-02-01T06:55:21;5.90;99.90
61151;DHT22;47029;50.994;2.876;2023-02-01T06:57:49;6.00;99.90
61151;DHT22;47029;50.994;2.876;2023-02-01T07:00:18;6.00;99.90
61151;DHT22;47029;50.994;2.876;2023-02-01T07:02:44;6.10;99.90
61151;DHT22;47029;50.994;2.876;2023-02-01T07:05:09;6.10;99.90
61151;DHT22;47029;50.994;2.876;2023-02-01T07:07:35;6.10;99.90
61151;DHT22;47029;50.994;2.876;2023-02-01T07:10:01;6.10;99.90
61151;DHT22;47029;50.994;2.876;2023-02-01T07:12:26;6.10;99.90
61151;DHT22;47029;50.994;2.876;2023-02-01T07:14:52;6.20;99.90
61151;DHT22;47029;50.994;2.876;2023-02-01T07:17:18;6.10;99.90
61151;DHT22;47029;50.994;2.876;2023-02-01T07:19:44;6.20;99.90
61151;DHT22;47029;50.994;2.876;2023-02-01T07:22:11;6.20;99.90
61151;DHT22;47029;50.994;2.876;2023-02-01T07:24:37;6.20;99.90
61151;DHT22;47029;50.994;2.876;2023-02-01T07:27:03;6.20;99.90
61151;DHT22;47029;50.994;2.876;2023-02-01T07:29:29;6.20;99.90
61151;DHT22;47029;50.994;2.876;2023-02-01T07:31:55;6.30;99.90
61151;DHT22;47029;50.994;2.876;2023-02-01T07:34:20;6.30;99.90
61151;DHT22;47029;50.994;2.876;2023-02-01T07:36:46;6.30;99.90
61151;DHT22;47029;50.994;2.876;2023-02-01T07:39:12;6.40;99.90
61151;DHT22;47029;50.994;2.876;2023-02-01T07:41:37;6.50;99.90
61151;DHT22;47029;50.994;2.876;2023-02-01T07:44:03;6.50;99.90
61151;DHT22;47029;50.994;2.876;2023-02-01T07:46:29;6.50;99.90
61151;DHT22;47029;50.994;2.876;2023-02-01T07:48:55;4.70;99.90
61151;DHT22;47029;50.994;2.876;2023-02-01T07:51:21;6.50;99.90
61151;DHT22;47029;50.994;2.876;2023-02-01T07:53:46;6.50;99.90
61151;DHT22;47029;50.994;2.876;2023-02-01T07:56:17;6.50;99.90
61151;DHT22;47029;50.994;2.876;2023-02-01T07:58:51;6.70;99.90
61151;DHT22;47029;50.994;2.876;2023-02-01T08:01:22;6.70;99.90
61151;DHT22;47029;50.994;2.876;2023-02-01T08:03:52;6.80;99.90
61151;DHT22;47029;50.994;2.876;2023-02-01T08:06:19;6.90;99.90
61151;DHT22;47029;50.994;2.876;2023-02-01T08:08:46;6.90;99.90
61151;DHT22;47029;50.994;2.876;2023-02-01T08:11:12;6.80;99.90
61151;DHT22;47029;50.994;2.876;2023-02-01T08:13:39;7.00;99.90
61151;DHT22;47029;50.994;2.876;2023-02-01T08:16:07;6.90;99.90
61151;DHT22;47029;50.994;2.876;2023-02-01T08:18:34;6.80;99.90
61151;DHT22;47029;50.994;2.876;2023-02-01T08:21:12;6.90;99.90
61151;DHT22;47029;50.994;2.876;2023-02-01T08:23:41;7.00;99.90
61151;DHT22;47029;50.994;2.876;2023-02-01T08:26:10;7.10;99.90
61151;DHT22;47029;50.994;2.876;2023-02-01T08:28:37;7.20;99.90
61151;DHT22;47029;50.994;2.876;2023-02-01T08:31:08;7.30;99.90
61151;DHT22;47029;50.994;2.876;2023-02-01T08:33:34;7.20;99.90
61151;DHT22;47029;50.994;2.876;2023-02-01T08:36:02;7.20;99.90
61151;DHT22;47029;50.994;2.876;2023-02-01T08:38:28;7.10;99.90
61151;DHT22;47029;50.994;2.876;2023-02-01T08:40:54;7.20;99.90
61151;DHT22;47029;50.994;2.876;2023-02-01T08:43:22;7.30;99.90
61151;DHT22;47029;50.994;2.876;2023-02-01T08:45:49;7.30;99.90
61151;DHT22;47029;50.994;2.876;2023-02-01T08:48:15;7.30;99.90
61151;DHT22;47029;50.994;2.876;2023-02-01T08:50:41;7.30;99.90
61151;DHT22;47029;50.994;2.876;2023-02-01T08:53:07;7.30;99.90
61151;DHT22;47029;50.994;2.876;2023-02-01T08:55:32;7.40;99.90
61151;DHT22;47029;50.994;2.876;2023-02-01T08:57:58;7.40;99.90
61151;DHT22;47029;50.994;2.876;2023-02-01T09:00:24;7.40;99.90
61151;DHT22;47029;50.994;2.876;2023-02-01T09:02:51;7.50;99.90
61151;DHT22;47029;50.994;2.876;2023-02-01T09:05:17;7.60;99.90
61151;DHT22;47029;50.994;2.876;2023-02-01T09:07:47;7.60;99.90
61151;DHT22;47029;50.994;2.876;2023-02-01T09:10:13;7.50;99.90
61151;DHT22;47029;50.994;2.876;2023-02-01T09:12:39;7.60;99.90
61151;DHT22;47029;50.994;2.876;2023-02-01T09:15:05;7.60;99.90
61151;DHT22;47029;50.994;2.876;2023-02-01T09:17:32;7.70;99.90
61151;DHT22;47029;50.994;2.876;2023-02-01T09:20:00;7.80;99.90
61151;DHT22;47029;50.994;2.876;2023-02-01T09:22:26;7.90;99.90
61151;DHT22;47029;50.994;2.876;2023-02-01T09:24:52;7.90;99.90
61151;DHT22;47029;50.994;2.876;2023-02-01T09:27:19;7.90;99.90
61151;DHT22;47029;50.994;2.876;2023-02-01T09:29:47;7.90;99.90
61151;DHT22;47029;50.994;2.876;2023-02-01T09:32:21;7.80;99.90
61151;DHT22;47029;50.994;2.876;2023-02-01T09:34:48;7.80;99.90
61151;DHT22;47029;50.994;2.876;2023-02-01T09:37:14;8.00;99.90
61151;DHT22;47029;50.994;2.876;2023-02-01T09:39:40;8.20;99.90
61151;DHT22;47029;50.994;2.876;2023-02-01T09:47:59;8.50;99.90
61151;DHT22;47029;50.994;2.876;2023-02-01T09:50:37;8.60;99.90
61151;DHT22;47029;50.994;2.876;2023-02-01T09:53:10;8.50;99.90
61151;DHT22;47029;50.994;2.876;2023-02-01T09:55:42;8.40;99.90
61151;DHT22;47029;50.994;2.876;2023-02-01T10:00:40;8.30;99.90
61151;DHT22;47029;50.994;2.876;2023-02-01T10:03:11;8.30;99.90
61151;DHT22;47029;50.994;2.876;2023-02-01T10:11:40;8.40;99.90
61151;DHT22;47029;50.994;2.876;2023-02-01T10:17:55;8.50;99.90
61151;DHT22;47029;50.994;2.876;2023-02-01T10:22:44;8.60;99.90
61151;DHT22;47029;50.994;2.876;2023-02-01T10:28:15;8.60;99.90
61151;DHT22;47029;50.994;2.876;2023-02-01T10:30:46;8.70;99.90
61151;DHT22;47029;50.994;2.876;2023-02-01T10:33:26;7.90;99.90
61151;DHT22;47029;50.994;2.876;2023-02-01T10:36:05;8.80;99.90
61151;DHT22;47029;50.994;2.876;2023-02-01T10:38:35;8.90;99.90
61151;DHT22;47029;50.994;2.876;2023-02-01T10:41:19;8.90;99.90
61151;DHT22;47029;50.994;2.876;2023-02-01T10:43:50;9.00;99.90
61151;DHT22;47029;50.994;2.876;2023-02-01T10:46:18;9.00;99.90
61151;DHT22;47029;50.994;2.876;2023-02-01T10:48:46;8.90;99.90
61151;DHT22;47029;50.994;2.876;2023-02-01T10:51:19;8.80;99.90
61151;DHT22;47029;50.994;2.876;2023-02-01T10:53:57;8.90;99.90
61151;DHT22;47029;50.994;2.876;2023-02-01T10:56:26;9.10;99.90
61151;DHT22;47029;50.994;2.876;2023-02-01T10:59:00;9.00;99.90
61151;DHT22;47029;50.994;2.876;2023-02-01T11:01:59;9.20;99.90
61151;DHT22;47029;50.994;2.876;2023-02-01T11:04:33;9.20;99.90
61151;DHT22;47029;50.994;2.876;2023-02-01T11:07:08;9.30;99.90
61151;DHT22;47029;50.994;2.876;2023-02-01T11:09:39;9.30;99.90
61151;DHT22;47029;50.994;2.876;2023-02-01T11:12:25;9.40;99.90
61151;DHT22;47029;50.994;2.876;2023-02-01T11:14:58;9.50;99.90
61151;DHT22;47029;50.994;2.876;2023-02-01T11:17:29;9.60;99.90
61151;DHT22;47029;50.994;2.876;2023-02-01T11:20:00;9.70;99.90
61151;DHT22;47029;50.994;2.876;2023-02-01T11:22:26;9.60;99.90
61151;DHT22;47029;50.994;2.876;2023-02-01T11:24:53;9.60;99.90
61151;DHT22;47029;50.994;2.876;2023-02-01T11:27:22;9.70;99.90
61151;DHT22;47029;50.994;2.876;2023-02-01T11:29:55;9.70;99.90
61151;DHT22;47029;50.994;2.876;2023-02-01T11:32:25;9.70;99.90
61151;DHT22;47029;50.994;2.876;2023-02-01T11:35:13;9.60;99.90
61151;DHT22;47029;50.994;2.876;2023-02-01T11:37:42;9.60;99.90
61151;DHT22;47029;50.994;2.876;2023-02-01T11:45:55;9.70;99.90
61151;DHT22;47029;50.994;2.876;2023-02-01T11:48:24;9.80;99.90
61151;DHT22;47029;50.994;2.876;2023-02-01T11:57:21;9.60;99.90
61151;DHT22;47029;50.994;2.876;2023-02-01T12:08:31;9.50;99.90
61151;DHT22;47029;50.994;2.876;2023-02-01T12:11:35;9.50;99.90
61151;DHT22;47029;50.994;2.876;2023-02-01T12:14:52;9.60;99.90
61151;DHT22;47029;50.994;2.876;2023-02-01T12:32:05;9.70;99.90
61151;DHT22;47029;50.994;2.876;2023-02-01T12:34:18;9.80;99.90
61151;DHT22;47029;50.994;2.876;2023-02-01T12:42:34;9.80;99.90
61151;DHT22;47029;50.994;2.876;2023-02-01T12:45:25;9.60;99.90
61151;DHT22;47029;50.994;2.876;2023-02-01T12:48:13;9.70;99.90
61151;DHT22;47029;50.994;2.876;2023-02-01T12:50:50;9.80;99.90
61151;DHT22;47029;50.994;2.876;2023-02-01T12:53:24;9.70;99.90
61151;DHT22;47029;50.994;2.876;2023-02-01T12:55:58;9.60;99.90
61151;DHT22;47029;50.994;2.876;2023-02-01T12:58:28;9.70;99.90
61151;DHT22;47029;50.994;2.876;2023-02-01T13:01:02;9.90;99.90
61151;DHT22;47029;50.994;2.876;2023-02-01T13:03:38;9.90;99.90
61151;DHT22;47029;50.994;2.876;2023-02-01T13:06:19;10.00;99.90
61151;DHT22;47029;50.994;2.876;2023-02-01T13:11:33;9.80;99.90
61151;DHT22;47029;50.994;2.876;2023-02-01T13:16:59;9.70;99.90
61151;DHT22;47029;50.994;2.876;2023-02-01T13:19:45;9.80;99.90
61151;DHT22;47029;50.994;2.876;2023-02-01T13:22:33;9.90;99.90
61151;DHT22;47029;50.994;2.876;2023-02-01T13:27:31;9.80;99.90
61151;DHT22;47029;50.994;2.876;2023-02-01T13:30:00;9.70;99.90
61151;DHT22;47029;50.994;2.876;2023-02-01T13:43:48;9.80;99.90
61151;DHT22;47029;50.994;2.876;2023-02-01T13:46:15;9.80;99.90
61151;DHT22;47029;50.994;2.876;2023-02-01T13:51:13;9.80;99.90
61151;DHT22;47029;50.994;2.876;2023-02-01T13:53:46;9.90;99.90
61151;DHT22;47029;50.994;2.876;2023-02-01T13:56:18;9.80;99.90
61151;DHT22;47029;50.994;2.876;2023-02-01T13:58:46;9.80;99.90
61151;DHT22;47029;50.994;2.876;2023-02-01T14:03:58;9.70;99.90
61151;DHT22;47029;50.994;2.876;2023-02-01T14:11:45;9.60;99.90
61151;DHT22;47029;50.994;2.876;2023-02-01T14:19:31;9.50;99.90
61151;DHT22;47029;50.994;2.876;2023-02-01T14:24:51;9.60;99.90
61151;DHT22;47029;50.994;2.876;2023-02-01T14:27:30;9.60;99.90
61151;DHT22;47029;50.994;2.876;2023-02-01T14:30:05;9.50;99.90
61151;DHT22;47029;50.994;2.876;2023-02-01T14:32:37;9.60;99.90
61151;DHT22;47029;50.994;2.876;2023-02-01T14:35:28;9.40;99.90
61151;DHT22;47029;50.994;2.876;2023-02-01T14:37:59;9.40;99.90
61151;DHT22;47029;50.994;2.876;2023-02-01T14:40:27;9.40;99.90
61151;DHT22;47029;50.994;2.876;2023-02-01T14:42:56;9.40;99.90
61151;DHT22;47029;50.994;2.876;2023-02-01T14:58:18;9.40;99.90
61151;DHT22;47029;50.994;2.876;2023-02-01T15:00:55;9.30;99.90
61151;DHT22;47029;50.994;2.876;2023-02-01T15:14:19;9.40;99.90
61151;DHT22;47029;50.994;2.876;2023-02-01T15:16:45;9.30;99.90
61151;DHT22;47029;50.994;2.876;2023-02-01T15:19:20;9.30;99.90
61151;DHT22;47029;50.994;2.876;2023-02-01T15:21:52;9.40;99.90
61151;DHT22;47029;50.994;2.876;2023-02-01T15:26:53;9.30;99.90
61151;DHT22;47029;50.994;2.876;2023-02-01T15:29:22;9.40;99.90
61151;DHT22;47029;50.994;2.876;2023-02-01T15:31:51;9.30;99.90
61151;DHT22;47029;50.994;2.876;2023-02-01T15:34:20;9.30;99.90
61151;DHT22;47029;50.994;2.876;2023-02-01T15:36:47;9.30;99.90
61151;DHT22;47029;50.994;2.876;2023-02-01T15:41:49;9.20;99.90
61151;DHT22;47029;50.994;2.876;2023-02-01T15:44:41;9.30;99.90
61151;DHT22;47029;50.994;2.876;2023-02-01T15:47:26;9.30;99.90
61151;DHT22;47029;50.994;2.876;2023-02-01T15:49:54;9.20;99.90
61151;DHT22;47029;50.994;2.876;2023-02-01T15:54:48;9.30;99.90
61151;DHT22;47029;50.994;2.876;2023-02-01T15:57:27;9.30;99.90
61151;DHT22;47029;50.994;2.876;2023-02-01T16:00:00;9.20;99.90
61151;DHT22;47029;50.994;2.876;2023-02-01T16:02:41;9.30;99.90
61151;DHT22;47029;50.994;2.876;2023-02-01T16:05:38;9.20;99.90
61151;DHT22;47029;50.994;2.876;2023-02-01T16:08:16;9.20;99.90
61151;DHT22;47029;50.994;2.876;2023-02-01T16:10:47;9.30;99.90
61151;DHT22;47029;50.994;2.876;2023-02-01T16:13:15;9.20;99.90
61151;DHT22;47029;50.994;2.876;2023-02-01T16:15:41;9.20;99.90
61151;DHT22;47029;50.994;2.876;2023-02-01T16:18:07;9.20;99.90
61151;DHT22;47029;50.994;2.876;2023-02-01T16:20:34;9.30;99.90
61151;DHT22;47029;50.994;2.876;2023-02-01T16:23:03;9.30;99.90
61151;DHT22;47029;50.994;2.876;2023-02-01T16:25:29;9.20;99.90
61151;DHT22;47029;50.994;2.876;2023-02-01T16:27:55;9.10;99.90
61151;DHT22;47029;50.994;2.876;2023-02-01T16:30:20;9.10;99.90
61151;DHT22;47029;50.994;2.876;2023-02-01T16:32:59;9.10;99.90
61151;DHT22;47029;50.994;2.876;2023-02-01T16:35:33;9.10;99.90
61151;DHT22;47029;50.994;2.876;2023-02-01T16:38:10;9.20;99.90
61151;DHT22;47029;50.994;2.876;2023-02-01T16:40:40;9.10;99.90
61151;DHT22;47029;50.994;2.876;2023-02-01T16:43:18;9.10;99.90
61151;DHT22;47029;50.994;2.876;2023-02-01T16:45:46;9.10;99.90
61151;DHT22;47029;50.994;2.876;2023-02-01T16:50:42;9.10;99.90
61151;DHT22;47029;50.994;2.876;2023-02-01T16:53:12;9.10;99.90
61151;DHT22;47029;50.994;2.876;2023-02-01T16:55:39;9.00;99.90
61151;DHT22;47029;50.994;2.876;2023-02-01T16:58:10;9.10;99.90
61151;DHT22;47029;50.994;2.876;2023-02-01T17:00:36;9.10;99.90
61151;DHT22;47029;50.994;2.876;2023-02-01T17:03:07;9.10;99.90
61151;DHT22;47029;50.994;2.876;2023-02-01T17:05:33;9.10;99.90
61151;DHT22;47029;50.994;2.876;2023-02-01T17:08:02;9.10;99.90
61151;DHT22;47029;50.994;2.876;2023-02-01T17:10:30;9.10;99.90
61151;DHT22;47029;50.994;2.876;2023-02-01T17:12:56;9.10;99.90
61151;DHT22;47029;50.994;2.876;2023-02-01T17:15:24;9.10;99.90
61151;DHT22;47029;50.994;2.876;2023-02-01T17:17:53;9.10;99.90
61151;DHT22;47029;50.994;2.876;2023-02-01T17:20:24;9.10;99.90
61151;DHT22;47029;50.994;2.876;2023-02-01T17:22:50;9.00;99.90
61151;DHT22;47029;50.994;2.876;2023-02-01T17:25:19;9.00;99.90
61151;DHT22;47029;50.994;2.876;2023-02-01T17:27:45;9.00;99.90
61151;DHT22;47029;50.994;2.876;2023-02-01T17:30:12;9.00;99.90
61151;DHT22;47029;50.994;2.876;2023-02-01T17:32:39;9.00;99.90
61151;DHT22;47029;50.994;2.876;2023-02-01T17:35:20;9.00;99.90
61151;DHT22;47029;50.994;2.876;2023-02-01T17:37:46;9.00;99.90
61151;DHT22;47029;50.994;2.876;2023-02-01T17:40:15;9.00;99.90
61151;DHT22;47029;50.994;2.876;2023-02-01T17:42:41;9.00;99.90
61151;DHT22;47029;50.994;2.876;2023-02-01T17:47:47;8.90;99.90
61151;DHT22;47029;50.994;2.876;2023-02-01T17:50:14;10.00;99.90
61151;DHT22;47029;50.994;2.876;2023-02-01T17:52:39;8.90;99.90
61151;DHT22;47029;50.994;2.876;2023-02-01T17:55:19;8.90;99.90
61151;DHT22;47029;50.994;2.876;2023-02-01T17:57:46;8.90;99.90
61151;DHT22;47029;50.994;2.876;2023-02-01T18:00:12;8.90;99.90
61151;DHT22;47029;50.994;2.876;2023-02-01T18:02:39;8.90;99.90
61151;DHT22;47029;50.994;2.876;2023-02-01T18:05:16;9.00;99.90
61151;DHT22;47029;50.994;2.876;2023-02-01T18:07:43;8.90;99.90
61151;DHT22;47029;50.994;2.876;2023-02-01T18:10:09;8.90;99.90
61151;DHT22;47029;50.994;2.876;2023-02-01T18:12:35;8.90;99.90
61151;DHT22;47029;50.994;2.876;2023-02-01T18:15:08;8.80;99.90
61151;DHT22;47029;50.994;2.876;2023-02-01T18:17:36;8.90;99.90
61151;DHT22;47029;50.994;2.876;2023-02-01T18:20:02;7.60;99.90
61151;DHT22;47029;50.994;2.876;2023-02-01T18:22:29;9.00;99.90
61151;DHT22;47029;50.994;2.876;2023-02-01T18:24:55;9.00;99.90
61151;DHT22;47029;50.994;2.876;2023-02-01T18:27:21;9.00;99.90
61151;DHT22;47029;50.994;2.876;2023-02-01T18:29:48;9.00;99.90
61151;DHT22;47029;50.994;2.876;2023-02-01T18:32:14;9.00;99.90
61151;DHT22;47029;50.994;2.876;2023-02-01T18:34:40;9.00;99.90
61151;DHT22;47029;50.994;2.876;2023-02-01T18:37:05;9.00;99.90
61151;DHT22;47029;50.994;2.876;2023-02-01T18:39:31;9.00;99.90
61151;DHT22;47029;50.994;2.876;2023-02-01T18:41:57;9.00;99.90
61151;DHT22;47029;50.994;2.876;2023-02-01T18:44:23;9.00;99.90
61151;DHT22;47029;50.994;2.876;2023-02-01T18:46:49;9.10;99.90
61151;DHT22;47029;50.994;2.876;2023-02-01T18:49:15;9.10;99.90
61151;DHT22;47029;50.994;2.876;2023-02-01T18:51:46;9.00;99.90
61151;DHT22;47029;50.994;2.876;2023-02-01T18:54:12;9.00;99.90
61151;DHT22;47029;50.994;2.876;2023-02-01T18:56:38;9.00;99.90
61151;DHT22;47029;50.994;2.876;2023-02-01T18:59:04;9.00;99.90
61151;DHT22;47029;50.994;2.876;2023-02-01T19:01:30;9.00;99.90